Time;durP1;ratioP1;P1;durP2;ratioP2;P2;SDS_P1;SDS_P2;PMS_P1;PMS_P2;Temp;Humidity;BMP_temperature;BMP_pressure;BME280_temperature;BME280_humidity;BME280_pressure;Samples;Min_cycle;Max_cycle;Signal;HPM_P1;HPM_P2
2022/05/30 00:00:30;;;;;;;;;;;10.40;99.90;;;;;;5093476;28;19994;-77
2022/05/30 00:02:56;;;;;;;;;;;10.40;99.90;;;;;;5093741;28;19909;-78
2022/05/30 00:05:23;;;;;;;;;;;10.40;99.90;;;;;;5093380;28;20407;-77
2022/05/30 00:07:49;;;;;;;;;;;10.40;99.90;;;;;;5093997;28;19908;-77
2022/05/30 00:10:15;;;;;;;;;;;10.30;99.90;;;;;;5093008;28;20280;-77
2022/05/30 00:12:41;;;;;;;;;;;10.20;99.90;;;;;;5093679;28;19916;-78
2022/05/30 00:15:08;;;;;;;;;;;10.20;99.90;;;;;;5093897;28;19908;-78
2022/05/30 00:17:34;;;;;;;;;;;10.10;99.90;;;;;;5092158;28;20666;-77
2022/05/30 00:19:59;;;;;;;;;;;10.20;99.90;;;;;;5093685;28;19915;-77
2022/05/30 00:22:25;;;;;;;;;;;10.10;99.90;;;;;;5093113;28;19915;-77
2022/05/30 00:24:50;;;;;;;;;;;10.10;99.90;;;;;;5093502;28;20326;-78
2022/05/30 00:27:18;;;;;;;;;;;10.10;99.90;;;;;;5092995;28;20002;-77
2022/05/30 00:29:43;;;;;;;;;;;10.00;99.90;;;;;;5093101;28;20451;-78
2022/05/30 00:32:09;;;;;;;;;;;10.10;99.90;;;;;;5093140;28;19943;-77
2022/05/30 00:34:36;;;;;;;;;;;10.00;99.90;;;;;;5092812;28;20493;-77
2022/05/30 00:37:02;;;;;;;;;;;9.90;99.90;;;;;;5093333;28;19916;-77
2022/05/30 00:39:27;;;;;;;;;;;9.90;99.90;;;;;;5092715;28;19954;-77
2022/05/30 00:42:05;;;;;;;;;;;9.90;99.90;;;;;;5093550;28;20357;-77
2022/05/30 00:44:30;;;;;;;;;;;9.90;99.90;;;;;;5097812;28;19941;-78
2022/05/30 00:46:56;;;;;;;;;;;10.00;99.90;;;;;;5098644;28;20361;-78
2022/05/30 00:49:21;;;;;;;;;;;10.00;99.90;;;;;;5092684;28;19919;-77
2022/05/30 00:51:53;;;;;;;;;;;10.00;99.90;;;;;;5093231;28;20315;-78
2022/05/30 00:54:20;;;;;;;;;;;10.00;99.90;;;;;;5092573;28;19916;-77
2022/05/30 00:56:50;;;;;;;;;;;10.00;99.90;;;;;;5093149;28;20002;-78
2022/05/30 00:59:17;;;;;;;;;;;9.90;99.90;;;;;;5092711;28;19908;-77
2022/05/30 01:01:42;;;;;;;;;;;10.00;99.90;;;;;;5093224;28;20280;-78
2022/05/30 01:06:53;;;;;;;;;;;10.10;99.90;;;;;;5092764;28;19914;-78
2022/05/30 01:09:31;;;;;;;;;;;10.10;99.90;;;;;;5092507;28;20336;-77
2022/05/30 01:11:56;;;;;;;;;;;10.20;99.90;;;;;;5093113;28;19908;-77
2022/05/30 01:14:23;;;;;;;;;;;10.20;99.90;;;;;;5092340;28;19920;-77
2022/05/30 01:16:48;;;;;;;;;;;10.20;99.90;;;;;;5092447;28;20315;-77
2022/05/30 01:19:36;;;;;;;;;;;10.30;99.90;;;;;;5092767;28;20018;-78
2022/05/30 01:22:02;;;;;;;;;;;10.30;99.90;;;;;;5092483;28;19934;-78
2022/05/30 01:24:36;;;;;;;;;;;10.40;99.90;;;;;;5093024;28;19908;-78
2022/05/30 01:27:20;;;;;;;;;;;10.40;99.90;;;;;;5093597;28;19912;-78
2022/05/30 01:29:58;;;;;;;;;;;10.40;99.90;;;;;;5096861;28;20365;-78
2022/05/30 01:32:24;;;;;;;;;;;10.30;99.90;;;;;;5095992;28;20266;-78
2022/05/30 01:34:50;;;;;;;;;;;10.40;99.90;;;;;;5096827;28;19908;-77
2022/05/30 01:37:15;;;;;;;;;;;10.40;99.90;;;;;;5096354;28;19908;-78
2022/05/30 01:39:41;;;;;;;;;;;10.40;99.90;;;;;;5096126;28;19908;-77
2022/05/30 01:42:07;;;;;;;;;;;10.30;99.90;;;;;;5097082;28;19908;-77
2022/05/30 01:44:33;;;;;;;;;;;10.40;99.90;;;;;;5096367;28;19908;-77
2022/05/30 01:46:58;;;;;;;;;;;10.40;99.90;;;;;;5096343;28;20434;-77
2022/05/30 01:49:24;;;;;;;;;;;10.40;99.90;;;;;;5095730;28;19908;-77
2022/05/30 01:51:53;;;;;;;;;;;10.30;99.90;;;;;;5096176;28;20356;-78
2022/05/30 01:54:19;;;;;;;;;;;10.30;99.90;;;;;;5095894;28;19974;-78
2022/05/30 01:56:45;;;;;;;;;;;10.30;99.90;;;;;;5096185;28;19913;-78
2022/05/30 01:59:10;;;;;;;;;;;10.40;99.90;;;;;;5096495;28;19915;-79
2022/05/30 02:01:37;;;;;;;;;;;10.30;99.90;;;;;;5096093;28;19908;-78
2022/05/30 02:04:04;;;;;;;;;;;10.30;99.90;;;;;;5096293;28;20387;-78
2022/05/30 02:06:31;;;;;;;;;;;10.30;99.90;;;;;;5077554;28;20325;-78
2022/05/30 02:08:59;;;;;;;;;;;10.30;99.90;;;;;;5095129;28;20453;-78
2022/05/30 02:11:24;;;;;;;;;;;10.30;99.90;;;;;;5095328;28;19915;-77
2022/05/30 02:13:50;;;;;;;;;;;10.30;99.90;;;;;;5078113;28;19912;-78
2022/05/30 02:19:00;;;;;;;;;;;10.20;99.90;;;;;;5096172;28;19934;-77
2022/05/30 02:21:26;;;;;;;;;;;10.20;99.90;;;;;;5095346;28;19940;-77
2022/05/30 02:23:51;;;;;;;;;;;10.20;99.90;;;;;;5095848;28;19948;-76
2022/05/30 02:26:17;;;;;;;;;;;10.30;99.90;;;;;;5095954;28;20002;-76
2022/05/30 02:28:43;;;;;;;;;;;10.20;99.90;;;;;;5076994;28;20323;-76
2022/05/30 02:31:08;;;;;;;;;;;10.20;99.90;;;;;;5095783;28;19908;-76
2022/05/30 02:39:02;;;;;;;;;;;10.10;99.90;;;;;;5095577;28;19935;-76
2022/05/30 02:41:28;;;;;;;;;;;10.10;99.90;;;;;;5094507;28;20341;-75
2022/05/30 02:43:54;;;;;;;;;;;10.10;99.90;;;;;;5095263;28;20317;-75
2022/05/30 02:46:19;;;;;;;;;;;10.10;99.90;;;;;;5095181;28;19918;-76
2022/05/30 02:48:45;;;;;;;;;;;10.00;99.90;;;;;;5094640;28;19912;-75
2022/05/30 02:51:11;;;;;;;;;;;10.10;99.90;;;;;;5095285;28;20353;-75
2022/05/30 02:53:36;;;;;;;;;;;10.10;99.90;;;;;;5094577;28;19990;-75
2022/05/30 02:56:03;;;;;;;;;;;10.10;99.90;;;;;;5095281;28;19964;-76
2022/05/30 02:58:29;;;;;;;;;;;10.10;99.90;;;;;;5094607;28;20003;-76
2022/05/30 03:00:54;;;;;;;;;;;10.10;99.90;;;;;;5094931;28;19977;-76
2022/05/30 03:03:20;;;;;;;;;;;10.10;99.90;;;;;;5095189;28;19908;-75
2022/05/30 03:05:45;;;;;;;;;;;10.10;99.90;;;;;;5094212;28;19919;-76
2022/05/30 03:08:11;;;;;;;;;;;10.10;99.90;;;;;;5095012;28;19953;-76
2022/05/30 03:10:37;;;;;;;;;;;10.10;99.90;;;;;;5094448;28;19908;-75
2022/05/30 03:13:03;;;;;;;;;;;10.10;99.90;;;;;;5095053;28;19929;-75
2022/05/30 03:15:28;;;;;;;;;;;10.20;99.90;;;;;;5094749;28;19914;-75
2022/05/30 03:17:54;;;;;;;;;;;10.20;99.90;;;;;;5094915;28;20010;-76
2022/05/30 03:20:19;;;;;;;;;;;10.20;99.90;;;;;;5095183;28;20349;-76
2022/05/30 03:22:46;;;;;;;;;;;10.10;99.90;;;;;;5093928;28;19908;-75
2022/05/30 03:25:11;;;;;;;;;;;10.10;99.90;;;;;;5094668;28;19912;-75
2022/05/30 03:27:37;;;;;;;;;;;10.10;99.90;;;;;;5094079;28;19953;-75
2022/05/30 03:30:03;;;;;;;;;;;10.10;99.90;;;;;;5094341;28;19908;-76
2022/05/30 03:32:28;;;;;;;;;;;10.10;99.90;;;;;;5093971;28;19923;-75
2022/05/30 03:34:54;;;;;;;;;;;10.10;99.90;;;;;;5094484;28;19908;-75
2022/05/30 03:37:19;;;;;;;;;;;10.10;99.90;;;;;;5094769;28;19916;-76
2022/05/30 03:39:45;;;;;;;;;;;10.00;99.90;;;;;;5093149;28;19912;-75
2022/05/30 03:42:14;;;;;;;;;;;10.10;99.90;;;;;;5093164;28;20272;-76
2022/05/30 03:44:40;;;;;;;;;;;10.00;99.90;;;;;;5094107;28;19915;-75
2022/05/30 03:47:06;;;;;;;;;;;10.00;99.90;;;;;;5110271;28;20011;-76
2022/05/30 03:49:32;;;;;;;;;;;10.10;99.90;;;;;;5093628;28;19943;-76
2022/05/30 03:51:58;;;;;;;;;;;10.00;99.90;;;;;;5093167;28;19908;-76
2022/05/30 03:54:24;;;;;;;;;;;10.00;99.90;;;;;;5094081;28;19952;-76
2022/05/30 03:56:49;;;;;;;;;;;10.00;99.90;;;;;;5093519;28;19978;-75
2022/05/30 03:59:15;;;;;;;;;;;10.00;99.90;;;;;;5109738;28;20383;-75
2022/05/30 04:01:41;;;;;;;;;;;9.90;99.90;;;;;;5093143;28;19908;-76
2022/05/30 04:04:06;;;;;;;;;;;9.90;99.90;;;;;;5093681;28;19951;-76
2022/05/30 04:06:32;;;;;;;;;;;9.90;99.90;;;;;;5093756;28;19991;-75
2022/05/30 04:08:58;;;;;;;;;;;9.80;99.90;;;;;;5092735;28;19957;-75
2022/05/30 04:11:23;;;;;;;;;;;9.90;99.90;;;;;;5094167;28;19908;-75
2022/05/30 04:13:49;;;;;;;;;;;9.90;99.90;;;;;;5093116;28;19972;-76
2022/05/30 04:16:15;;;;;;;;;;;9.80;99.90;;;;;;5093247;28;19920;-76
2022/05/30 04:18:41;;;;;;;;;;;9.90;99.90;;;;;;5093105;28;19912;-75
2022/05/30 04:21:07;;;;;;;;;;;9.80;99.90;;;;;;5093665;28;19916;-76
2022/05/30 04:23:33;;;;;;;;;;;9.80;99.90;;;;;;5092804;28;20271;-75
2022/05/30 04:25:59;;;;;;;;;;;9.90;99.90;;;;;;5093263;28;19961;-76
2022/05/30 04:28:25;;;;;;;;;;;9.90;99.90;;;;;;5093593;28;19912;-76
2022/05/30 04:30:51;;;;;;;;;;;9.90;99.90;;;;;;5092885;28;20662;-76
2022/05/30 04:33:16;;;;;;;;;;;9.90;99.90;;;;;;5093486;28;19923;-76
2022/05/30 04:35:43;;;;;;;;;;;10.00;99.90;;;;;;5092660;28;19934;-75
2022/05/30 04:38:08;;;;;;;;;;;10.10;99.90;;;;;;5093445;28;19908;-76
2022/05/30 04:40:34;;;;;;;;;;;10.00;99.90;;;;;;5092478;28;19999;-76
2022/05/30 04:42:59;;;;;;;;;;;9.90;99.90;;;;;;5093237;28;19908;-76
2022/05/30 04:45:25;;;;;;;;;;;10.00;99.90;;;;;;5093375;28;19915;-76
2022/05/30 04:47:50;;;;;;;;;;;9.90;99.90;;;;;;5092573;28;19904;-76
2022/05/30 04:50:16;;;;;;;;;;;9.90;99.90;;;;;;5092922;28;19909;-76
2022/05/30 04:52:43;;;;;;;;;;;9.90;99.90;;;;;;5092454;28;20022;-75
2022/05/30 04:55:09;;;;;;;;;;;10.00;99.90;;;;;;5093163;28;19908;-76
2022/05/30 04:57:41;;;;;;;;;;;10.00;99.90;;;;;;5092390;28;19908;-75
2022/05/30 05:00:07;;;;;;;;;;;10.00;99.90;;;;;;5092815;28;20369;-76
2022/05/30 05:02:33;;;;;;;;;;;10.00;99.90;;;;;;5092300;28;19948;-75
2022/05/30 05:04:59;;;;;;;;;;;10.10;99.90;;;;;;5092921;28;19989;-76
2022/05/30 05:07:24;;;;;;;;;;;10.10;99.90;;;;;;5093107;28;19915;-76
2022/05/30 05:09:52;;;;;;;;;;;10.10;99.90;;;;;;5092462;28;19930;-76
2022/05/30 05:12:17;;;;;;;;;;;10.20;99.90;;;;;;5092620;28;20427;-76
2022/05/30 05:14:43;;;;;;;;;;;10.20;99.90;;;;;;5092429;28;19912;-76
2022/05/30 05:17:09;;;;;;;;;;;10.20;99.90;;;;;;5093266;28;20384;-76
2022/05/30 05:19:36;;;;;;;;;;;10.30;99.90;;;;;;5091915;28;20012;-75
2022/05/30 05:22:02;;;;;;;;;;;10.30;99.90;;;;;;5092554;28;20049;-75
2022/05/30 05:24:27;;;;;;;;;;;10.30;99.90;;;;;;5092850;28;19912;-76
2022/05/30 05:26:53;;;;;;;;;;;10.30;99.90;;;;;;5092105;28;19904;-76
2022/05/30 05:29:19;;;;;;;;;;;10.30;99.90;;;;;;5092798;28;19922;-76
2022/05/30 05:31:44;;;;;;;;;;;10.40;99.90;;;;;;5092133;28;19915;-75
2022/05/30 05:34:11;;;;;;;;;;;10.30;99.90;;;;;;5092647;28;19916;-75
2022/05/30 05:36:38;;;;;;;;;;;10.30;99.90;;;;;;5092117;28;19934;-75
2022/05/30 05:39:04;;;;;;;;;;;10.30;99.90;;;;;;5092651;28;20388;-76
2022/05/30 05:41:30;;;;;;;;;;;10.30;99.90;;;;;;5092717;28;19908;-75
2022/05/30 05:43:56;;;;;;;;;;;10.30;99.90;;;;;;5092029;28;20848;-75
2022/05/30 05:46:23;;;;;;;;;;;10.30;99.90;;;;;;5092225;28;19947;-76
2022/05/30 05:48:50;;;;;;;;;;;10.40;99.90;;;;;;5091905;28;19912;-75
2022/05/30 05:51:17;;;;;;;;;;;10.40;99.90;;;;;;5092022;28;20292;-76
2022/05/30 05:53:43;;;;;;;;;;;10.40;99.90;;;;;;5091995;28;19916;-75
2022/05/30 05:56:12;;;;;;;;;;;10.40;99.90;;;;;;5092314;28;20471;-76
2022/05/30 05:58:38;;;;;;;;;;;10.40;99.90;;;;;;5091947;28;20007;-75
2022/05/30 06:01:10;;;;;;;;;;;10.40;99.90;;;;;;5092402;28;20325;-76
2022/05/30 06:03:36;;;;;;;;;;;10.50;99.90;;;;;;5092186;28;19962;-75
2022/05/30 06:06:02;;;;;;;;;;;10.50;99.90;;;;;;5092254;28;20307;-76
2022/05/30 06:08:28;;;;;;;;;;;10.60;99.90;;;;;;5108201;28;20273;-75
2022/05/30 06:11:05;;;;;;;;;;;10.50;99.90;;;;;;5091879;28;19909;-75
2022/05/30 06:13:38;;;;;;;;;;;10.60;99.90;;;;;;5107978;28;19920;-75
2022/05/30 06:16:09;;;;;;;;;;;10.60;99.90;;;;;;5094628;28;19927;-75
2022/05/30 06:18:34;;;;;;;;;;;10.70;99.90;;;;;;5095730;28;19940;-75
2022/05/30 06:21:00;;;;;;;;;;;10.70;99.90;;;;;;5095258;28;20344;-76
2022/05/30 06:23:26;;;;;;;;;;;10.70;99.90;;;;;;5096100;28;20307;-75
2022/05/30 06:25:51;;;;;;;;;;;10.70;99.90;;;;;;5095286;28;20124;-75
2022/05/30 06:28:17;;;;;;;;;;;10.80;99.90;;;;;;5095452;28;19958;-76
2022/05/30 06:30:42;;;;;;;;;;;10.80;99.90;;;;;;5094912;28;19908;-75
2022/05/30 06:33:08;;;;;;;;;;;10.90;99.90;;;;;;5094860;28;19920;-76
2022/05/30 06:35:33;;;;;;;;;;;10.90;99.90;;;;;;5095134;28;19951;-76
2022/05/30 06:37:59;;;;;;;;;;;10.90;99.90;;;;;;5094743;28;19964;-76
2022/05/30 06:40:25;;;;;;;;;;;10.80;99.90;;;;;;5095554;28;19908;-76
2022/05/30 06:42:50;;;;;;;;;;;10.90;99.90;;;;;;5094694;28;19908;-76
2022/05/30 06:45:16;;;;;;;;;;;10.80;99.90;;;;;;5095442;28;19915;-76
2022/05/30 06:47:42;;;;;;;;;;;10.90;99.90;;;;;;5097398;28;19978;-75
2022/05/30 06:50:07;;;;;;;;;;;10.90;99.90;;;;;;5099404;28;19908;-76
2022/05/30 06:52:34;;;;;;;;;;;10.90;99.90;;;;;;5096306;28;19916;-76
2022/05/30 06:55:00;;;;;;;;;;;11.00;99.90;;;;;;5094410;28;19947;-76
2022/05/30 07:00:10;;;;;;;;;;;11.10;99.90;;;;;;5095056;28;19931;-76
2022/05/30 07:02:36;;;;;;;;;;;11.10;99.90;;;;;;5095113;28;20405;-76
2022/05/30 07:05:02;;;;;;;;;;;11.10;99.90;;;;;;5094170;28;19931;-76
2022/05/30 07:07:28;;;;;;;;;;;11.10;99.90;;;;;;5095018;28;19908;-76
2022/05/30 07:09:53;;;;;;;;;;;11.20;99.90;;;;;;5094213;28;19991;-76
2022/05/30 07:12:19;;;;;;;;;;;11.20;99.90;;;;;;5094834;28;19908;-76
2022/05/30 07:14:44;;;;;;;;;;;11.20;99.90;;;;;;5094327;28;19912;-76
2022/05/30 07:17:10;;;;;;;;;;;11.30;99.90;;;;;;5094666;28;20003;-76
2022/05/30 07:19:36;;;;;;;;;;;11.40;99.90;;;;;;5094746;28;19908;-76
2022/05/30 07:22:02;;;;;;;;;;;11.40;99.90;;;;;;5094316;28;19919;-76
2022/05/30 07:24:29;;;;;;;;;;;11.50;99.90;;;;;;5094811;28;19908;-76
2022/05/30 07:26:54;;;;;;;;;;;11.40;99.90;;;;;;5093923;28;19909;-76
2022/05/30 07:29:20;;;;;;;;;;;11.50;99.90;;;;;;5094704;28;20417;-76
2022/05/30 07:31:45;;;;;;;;;;;11.50;99.90;;;;;;5093929;28;19914;-76
2022/05/30 07:34:11;;;;;;;;;;;11.60;99.90;;;;;;5093230;28;19916;-76
2022/05/30 07:36:37;;;;;;;;;;;11.70;99.90;;;;;;5094018;28;19908;-76
2022/05/30 07:39:03;;;;;;;;;;;11.90;99.90;;;;;;5090698;28;20064;-76
2022/05/30 07:41:30;;;;;;;;;;;12.00;99.90;;;;;;5102478;28;19919;-78
2022/05/30 07:43:56;;;;;;;;;;;12.00;99.90;;;;;;5110372;28;19993;-77
2022/05/30 07:46:22;;;;;;;;;;;12.20;99.90;;;;;;5094994;28;19912;-78
2022/05/30 07:48:48;;;;;;;;;;;12.10;99.90;;;;;;5093359;28;20281;-76
2022/05/30 07:51:14;;;;;;;;;;;12.00;99.90;;;;;;5094050;28;20011;-78
2022/05/30 07:53:41;;;;;;;;;;;12.00;99.90;;;;;;5075615;28;19924;-78
2022/05/30 07:56:07;;;;;;;;;;;12.00;99.90;;;;;;5092787;28;20265;-76
2022/05/30 07:58:33;;;;;;;;;;;12.10;99.90;;;;;;5094254;28;19908;-79
2022/05/30 08:00:59;;;;;;;;;;;12.00;99.90;;;;;;5091479;28;19915;-76
2022/05/30 08:03:26;;;;;;;;;;;12.10;99.90;;;;;;5093429;28;20360;-76
2022/05/30 08:06:14;;;;;;;;;;;12.20;99.90;;;;;;5093148;28;19912;-76
2022/05/30 08:08:40;;;;;;;;;;;12.10;99.90;;;;;;5093741;28;19915;-76
2022/05/30 08:11:06;;;;;;;;;;;12.30;99.90;;;;;;5092652;28;20273;-76
2022/05/30 08:13:31;;;;;;;;;;;12.50;99.90;;;;;;5093371;28;19927;-76
2022/05/30 08:15:57;;;;;;;;;;;12.70;99.90;;;;;;5092841;28;19954;-76
2022/05/30 08:18:23;;;;;;;;;;;13.00;99.90;;;;;;5093409;28;20254;-76
2022/05/30 08:20:48;;;;;;;;;;;13.00;99.90;;;;;;5092212;28;19963;-76
2022/05/30 08:23:14;;;;;;;;;;;13.10;99.90;;;;;;5093294;28;20254;-77
2022/05/30 08:25:40;;;;;;;;;;;13.00;99.90;;;;;;5093140;28;19908;-77
2022/05/30 08:28:05;;;;;;;;;;;13.20;99.90;;;;;;5092582;28;20011;-78
2022/05/30 08:30:31;;;;;;;;;;;13.40;99.90;;;;;;5095425;28;19980;-78
2022/05/30 08:32:57;;;;;;;;;;;13.50;99.90;;;;;;5092146;28;19980;-77
2022/05/30 08:35:23;;;;;;;;;;;13.50;99.90;;;;;;5092765;28;19915;-77
2022/05/30 08:37:49;;;;;;;;;;;13.40;99.90;;;;;;5091638;28;19916;-77
2022/05/30 08:43:02;;;;;;;;;;;13.40;99.90;;;;;;5091970;28;19965;-77
2022/05/30 08:45:28;;;;;;;;;;;13.60;99.90;;;;;;5092195;28;19912;-78
2022/05/30 08:47:56;;;;;;;;;;;13.60;99.90;;;;;;5092664;28;20395;-78
2022/05/30 08:50:39;;;;;;;;;;;13.70;99.90;;;;;;5092371;28;19908;-77
2022/05/30 08:53:17;;;;;;;;;;;13.80;99.90;;;;;;5091941;28;19912;-77
2022/05/30 08:55:58;;;;;;;;;;;13.90;99.90;;;;;;5092572;28;20003;-78
2022/05/30 08:58:41;;;;;;;;;;;13.90;99.90;;;;;;5092654;28;19962;-77
2022/05/30 09:01:17;;;;;;;;;;;14.10;99.90;;;;;;5073541;28;19939;-76
2022/05/30 09:04:10;;;;;;;;;;;14.00;99.90;;;;;;5092151;28;19915;-77
2022/05/30 09:06:41;;;;;;;;;;;14.00;99.90;;;;;;5075703;28;19929;-77
2022/05/30 09:09:12;;;;;;;;;;;14.00;99.90;;;;;;5106907;28;19908;-77
2022/05/30 09:11:41;;;;;;;;;;;14.10;99.90;;;;;;5089533;28;19954;-77
2022/05/30 09:14:30;;;;;;;;;;;14.20;99.90;;;;;;5090763;28;19920;-77
2022/05/30 09:16:58;;;;;;;;;;;14.30;99.90;;;;;;5071281;28;19937;-77
2022/05/30 09:19:24;;;;;;;;;;;14.20;99.90;;;;;;5092094;28;19908;-77
2022/05/30 09:21:50;;;;;;;;;;;14.30;99.90;;;;;;5107344;28;20408;-76
2022/05/30 09:24:16;;;;;;;;;;;14.30;99.90;;;;;;5092051;28;19912;-77
2022/05/30 09:26:42;;;;;;;;;;;14.40;99.90;;;;;;5091731;28;20365;-77
2022/05/30 09:29:19;;;;;;;;;;;14.50;99.90;;;;;;5090739;28;20318;-77
2022/05/30 09:32:14;;;;;;;;;;;14.70;99.90;;;;;;5091441;28;19930;-77
2022/05/30 09:34:45;;;;;;;;;;;14.80;99.90;;;;;;5053502;28;20012;-77
2022/05/30 09:37:34;;;;;;;;;;;14.90;99.90;;;;;;5091534;28;19908;-77
2022/05/30 09:39:59;;;;;;;;;;;15.00;99.90;;;;;;5091209;28;19961;-77
2022/05/30 09:42:25;;;;;;;;;;;14.90;99.90;;;;;;5083299;28;19908;-77
2022/05/30 09:44:52;;;;;;;;;;;14.90;99.90;;;;;;5090691;28;19915;-77
2022/05/30 09:47:19;;;;;;;;;;;15.00;99.90;;;;;;5073625;28;19908;-77
2022/05/30 09:49:49;;;;;;;;;;;15.00;99.90;;;;;;5093860;28;19915;-77
2022/05/30 09:52:26;;;;;;;;;;;15.10;99.90;;;;;;5095957;28;19908;-78
2022/05/30 09:54:53;;;;;;;;;;;15.10;99.90;;;;;;5095174;28;19916;-77
2022/05/30 09:57:27;;;;;;;;;;;15.10;99.90;;;;;;5095864;28;20053;-77
2022/05/30 09:59:55;;;;;;;;;;;15.10;99.90;;;;;;5095530;28;20345;-77
2022/05/30 10:02:27;;;;;;;;;;;15.30;99.90;;;;;;5112486;27;19916;-77
2022/05/30 10:05:00;;;;;;;;;;;15.40;99.90;;;;;;5102141;28;19937;-77
2022/05/30 10:07:26;;;;;;;;;;;15.40;99.90;;;;;;5078150;28;20333;-78
2022/05/30 10:10:00;;;;;;;;;;;15.50;99.90;;;;;;5077638;28;19951;-78
2022/05/30 10:12:36;;;;;;;;;;;15.50;99.90;;;;;;5095651;28;20006;-77
2022/05/30 10:15:22;;;;;;;;;;;15.60;99.90;;;;;;5095458;28;19919;-77
2022/05/30 10:17:49;;;;;;;;;;;15.90;99.90;;;;;;5097093;28;19920;-76
2022/05/30 10:20:20;;;;;;;;;;;15.90;99.90;;;;;;5095425;28;19923;-76
2022/05/30 10:28:49;;;;;;;;;;;15.40;99.90;;;;;;5094242;28;20006;-77
2022/05/30 10:31:21;;;;;;;;;;;15.20;99.90;;;;;;5075908;28;19919;-77
2022/05/30 10:34:05;;;;;;;;;;;15.10;99.90;;;;;;5092464;28;20190;-77
2022/05/30 10:36:37;;;;;;;;;;;15.00;99.90;;;;;;5094047;28;19908;-77
2022/05/30 10:39:21;;;;;;;;;;;15.10;99.90;;;;;;5110127;28;19912;-77
2022/05/30 10:41:52;;;;;;;;;;;15.10;99.90;;;;;;5094132;28;19915;-77
2022/05/30 10:44:29;;;;;;;;;;;15.20;99.90;;;;;;5094496;28;20314;-77
2022/05/30 10:47:02;;;;;;;;;;;15.40;99.90;;;;;;5094067;28;20007;-77
2022/05/30 10:49:32;;;;;;;;;;;15.60;99.90;;;;;;5110235;28;19939;-76
2022/05/30 10:52:04;;;;;;;;;;;15.50;99.90;;;;;;5093331;28;19912;-77
2022/05/30 10:54:37;;;;;;;;;;;15.50;99.90;;;;;;5074034;28;19916;-77
2022/05/30 10:57:09;;;;;;;;;;;15.70;99.90;;;;;;5073651;28;19920;-77
2022/05/30 10:59:37;;;;;;;;;;;15.90;99.90;;;;;;5073914;28;19916;-77
2022/05/30 11:02:09;;;;;;;;;;;16.00;99.90;;;;;;5072945;28;19949;-77
2022/05/30 11:04:58;;;;;;;;;;;16.00;99.90;;;;;;5074229;28;19962;-77
2022/05/30 11:07:29;;;;;;;;;;;16.00;99.90;;;;;;5074249;28;19908;-78
2022/05/30 11:10:01;;;;;;;;;;;15.90;99.90;;;;;;5073508;28;19912;-77
2022/05/30 11:12:38;;;;;;;;;;;15.80;99.90;;;;;;5089521;28;19967;-77
2022/05/30 11:15:04;;;;;;;;;;;16.00;99.90;;;;;;5073240;28;19912;-77
2022/05/30 11:17:49;;;;;;;;;;;15.90;99.90;;;;;;5073511;28;20338;-77
2022/05/30 11:20:18;;;;;;;;;;;15.80;99.90;;;;;;5073709;28;19955;-77
2022/05/30 11:22:54;;;;;;;;;;;15.70;99.90;;;;;;5074007;28;19971;-78
2022/05/30 11:25:25;;;;;;;;;;;15.60;99.90;;;;;;5070769;28;19916;-78
2022/05/30 11:28:00;;;;;;;;;;;15.50;99.90;;;;;;5071462;28;20033;-78
2022/05/30 11:30:44;;;;;;;;;;;15.40;99.90;;;;;;5073300;28;19950;-78
2022/05/30 11:33:09;;;;;;;;;;;15.10;99.90;;;;;;5072918;28;19931;-78
2022/05/30 11:35:47;;;;;;;;;;;15.10;99.90;;;;;;5072745;28;19912;-78
2022/05/30 11:38:16;;;;;;;;;;;15.20;99.90;;;;;;5073013;28;19948;-81
2022/05/30 11:40:47;;;;;;;;;;;15.30;99.90;;;;;;5073444;28;19923;-79
2022/05/30 11:43:27;;;;;;;;;;;15.40;99.90;;;;;;5073071;28;20011;-79
2022/05/30 11:46:05;;;;;;;;;;;15.50;99.90;;;;;;5072696;28;19916;-78
2022/05/30 11:48:49;;;;;;;;;;;15.50;99.90;;;;;;5073308;28;19908;-79
2022/05/30 11:51:34;;;;;;;;;;;15.60;99.90;;;;;;5072926;28;19916;-79
2022/05/30 11:54:06;;;;;;;;;;;15.60;99.90;;;;;;5072388;28;19924;-79
2022/05/30 11:56:46;;;;;;;;;;;15.50;99.90;;;;;;5073052;28;19931;-79
2022/05/30 11:59:16;;;;;;;;;;;15.40;99.90;;;;;;5072317;28;19908;-78
2022/05/30 12:01:42;;;;;;;;;;;15.20;99.90;;;;;;5072773;28;20269;-78
2022/05/30 12:04:14;;;;;;;;;;;15.10;99.90;;;;;;5087687;28;20102;-77
2022/05/30 12:06:42;;;;;;;;;;;15.10;99.90;;;;;;5073111;28;19915;-78
2022/05/30 12:09:19;;;;;;;;;;;15.20;99.90;;;;;;5072070;28;20073;-79
2022/05/30 12:12:04;;;;;;;;;;;15.40;99.90;;;;;;5072229;28;19912;-79
2022/05/30 12:14:44;;;;;;;;;;;15.40;99.90;;;;;;5087910;28;19916;-79
2022/05/30 12:17:17;;;;;;;;;;;15.50;99.90;;;;;;5087435;28;19920;-78
2022/05/30 12:25:30;;;;;;;;;;;15.50;99.90;;;;;;5112624;28;20284;-78
2022/05/30 12:27:56;;;;;;;;;;;15.40;99.90;;;;;;5094800;28;19912;-79
2022/05/30 12:30:33;;;;;;;;;;;15.40;99.90;;;;;;5093049;28;19931;-77
2022/05/30 12:32:59;;;;;;;;;;;15.50;99.90;;;;;;5092958;28;20365;-78
2022/05/30 12:35:27;;;;;;;;;;;15.60;99.90;;;;;;5093435;28;19958;-78
2022/05/30 12:37:52;;;;;;;;;;;15.70;99.90;;;;;;5108629;28;19912;-77
2022/05/30 12:40:24;;;;;;;;;;;15.70;99.90;;;;;;5092819;28;19918;-78
2022/05/30 12:43:06;;;;;;;;;;;15.70;99.90;;;;;;5092463;28;19915;-77
2022/05/30 12:45:40;;;;;;;;;;;15.50;99.90;;;;;;5092426;28;19915;-78
2022/05/30 12:48:11;;;;;;;;;;;15.50;99.90;;;;;;5089808;28;20460;-78
2022/05/30 12:50:43;;;;;;;;;;;15.60;99.90;;;;;;5092492;28;19908;-78
2022/05/30 12:53:09;;;;;;;;;;;15.60;99.90;;;;;;5092369;28;20004;-77
2022/05/30 12:55:39;;;;;;;;;;;15.70;99.90;;;;;;5092534;28;19915;-77
2022/05/30 12:58:05;;;;;;;;;;;15.80;99.90;;;;;;5092341;28;19908;-77
2022/05/30 13:00:40;;;;;;;;;;;15.80;99.90;;;;;;5092918;28;19953;-77
2022/05/30 13:03:25;;;;;;;;;;;15.70;99.90;;;;;;5091622;28;19959;-77
2022/05/30 13:06:00;;;;;;;;;;;15.60;99.90;;;;;;5092531;28;20010;-77
2022/05/30 13:09:03;;;;;;;;;;;15.60;99.90;;;;;;5092303;28;19908;-78
2022/05/30 13:11:29;;;;;;;;;;;15.50;99.90;;;;;;5049265;28;19908;-77
2022/05/30 13:13:55;;;;;;;;;;;15.40;99.90;;;;;;5083547;28;19962;-77
2022/05/30 13:16:27;;;;;;;;;;;15.40;99.90;;;;;;5091777;28;19920;-77
2022/05/30 13:18:55;;;;;;;;;;;15.40;99.90;;;;;;5091544;28;19908;-77
2022/05/30 13:21:24;;;;;;;;;;;15.40;99.90;;;;;;5092066;28;19971;-77
2022/05/30 13:23:49;;;;;;;;;;;15.40;99.90;;;;;;5090207;28;19912;-77
2022/05/30 13:26:16;;;;;;;;;;;15.50;99.90;;;;;;5096014;28;19912;-78
2022/05/30 13:28:43;;;;;;;;;;;15.40;99.90;;;;;;5112394;28;20392;-78
2022/05/30 13:31:10;;;;;;;;;;;15.30;99.90;;;;;;5106879;28;19947;-78
2022/05/30 13:33:39;;;;;;;;;;;15.20;99.90;;;;;;5099203;28;20284;-77
2022/05/30 13:36:05;;;;;;;;;;;15.10;99.90;;;;;;5077834;28;20003;-78
2022/05/30 13:38:42;;;;;;;;;;;15.00;99.90;;;;;;5096570;28;19908;-78
2022/05/30 13:41:15;;;;;;;;;;;14.90;99.90;;;;;;5095509;28;19908;-78
2022/05/30 13:43:41;;;;;;;;;;;14.50;99.90;;;;;;5098275;28;19912;-90
2022/05/30 13:46:29;;;;;;;;;;;14.10;99.90;;;;;;5107731;28;19908;-90
2022/05/30 13:49:04;;;;;;;;;;;13.80;99.90;;;;;;5074787;28;20463;-90
2022/05/30 13:51:35;;;;;;;;;;;13.80;99.90;;;;;;5087889;28;19944;-86
2022/05/30 13:54:01;;;;;;;;;;;13.70;99.90;;;;;;5080531;28;19919;-84
2022/05/30 13:56:34;;;;;;;;;;;13.50;99.90;;;;;;5095477;28;19908;-82
2022/05/30 13:59:01;;;;;;;;;;;13.60;99.90;;;;;;5095357;28;19912;-81
2022/05/30 14:01:31;;;;;;;;;;;13.60;99.90;;;;;;5095494;28;19951;-80
2022/05/30 14:04:00;;;;;;;;;;;13.60;99.90;;;;;;5094318;28;19912;-80
2022/05/30 14:06:39;;;;;;;;;;;13.60;99.90;;;;;;5095045;28;19908;-80
2022/05/30 14:09:06;;;;;;;;;;;13.70;99.90;;;;;;5094550;28;19951;-80
2022/05/30 14:11:37;;;;;;;;;;;13.80;99.90;;;;;;5094553;28;19912;-78
2022/05/30 14:14:04;;;;;;;;;;;14.00;99.90;;;;;;5094323;28;20015;-79
2022/05/30 14:16:43;;;;;;;;;;;14.20;99.90;;;;;;5091652;28;19920;-79
2022/05/30 14:19:22;;;;;;;;;;;14.40;99.90;;;;;;5094066;28;19981;-81
2022/05/30 14:21:49;;;;;;;;;;;14.50;99.90;;;;;;5094769;28;19912;-80
2022/05/30 14:24:32;;;;;;;;;;;14.60;99.90;;;;;;5094551;28;19908;-80
2022/05/30 14:26:58;;;;;;;;;;;14.50;99.90;;;;;;5094336;28;19909;-80
2022/05/30 14:29:44;;;;;;;;;;;14.50;99.90;;;;;;5094798;28;20365;-80
2022/05/30 14:32:19;;;;;;;;;;;14.60;99.90;;;;;;5093962;28;19908;-80
2022/05/30 14:35:03;;;;;;;;;;;14.70;99.90;;;;;;5094927;28;19916;-80
2022/05/30 14:37:28;;;;;;;;;;;14.80;99.90;;;;;;5108034;28;20000;-80
2022/05/30 14:39:55;;;;;;;;;;;14.90;99.90;;;;;;5091717;28;19916;-78
2022/05/30 14:42:26;;;;;;;;;;;15.20;99.90;;;;;;5094288;28;19953;-80
2022/05/30 14:44:57;;;;;;;;;;;15.40;99.90;;;;;;5094316;28;20328;-80
2022/05/30 14:47:32;;;;;;;;;;;15.60;99.90;;;;;;5094607;28;19912;-80
2022/05/30 14:50:07;;;;;;;;;;;15.50;99.90;;;;;;5094039;28;20424;-79
2022/05/30 14:52:34;;;;;;;;;;;15.40;99.90;;;;;;5094661;28;20310;-79
2022/05/30 14:55:11;;;;;;;;;;;15.30;99.90;;;;;;5109748;28;19908;-79
2022/05/30 14:57:42;;;;;;;;;;;15.00;99.90;;;;;;5094281;28;19908;-79